createdAt,value
2023-03-23T15:58:31.129Z,1.20
2023-03-23T16:01:38.478Z,1.42
2023-03-23T16:04:45.275Z,1.80
2023-03-23T16:07:51.806Z,0.98
2023-03-23T16:10:56.504Z,1.20
2023-03-23T16:14:02.074Z,1.60
2023-03-23T16:17:10.899Z,1.52
2023-03-23T16:20:22.135Z,1.35
2023-03-23T16:23:27.037Z,1.60
2023-03-23T16:26:31.605Z,1.75
2023-03-23T16:32:46.760Z,1.50
2023-03-23T16:35:51.375Z,1.45
2023-03-23T16:38:56.160Z,1.77
2023-03-23T16:42:00.754Z,1.60
2023-03-23T16:45:06.061Z,1.70
2023-03-23T16:48:11.610Z,1.75
2023-03-23T16:51:16.430Z,1.67
2023-03-23T16:54:21.349Z,1.83
2023-03-23T16:57:26.273Z,1.40
2023-03-23T17:00:31.096Z,1.70
2023-03-23T17:03:35.771Z,1.85
2023-03-23T17:06:40.371Z,1.40
2023-03-23T17:09:45.254Z,1.50
2023-03-23T17:12:49.768Z,1.27
2023-03-23T17:15:57.100Z,1.40
2023-03-23T17:19:01.900Z,1.20
2023-03-23T17:22:06.498Z,1.50
2023-03-23T17:25:11.411Z,1.00
2023-03-23T17:28:18.332Z,1.40
2023-03-23T17:31:24.544Z,1.50
2023-03-23T17:34:29.103Z,1.40
2023-03-23T17:37:33.976Z,1.63
2023-03-23T17:40:39.872Z,1.73
2023-03-23T17:43:44.577Z,1.60
2023-03-23T17:46:49.548Z,1.80
2023-03-23T17:49:54.352Z,1.77
2023-03-23T17:53:00.440Z,1.70
2023-03-23T17:56:06.582Z,1.85
2023-03-23T17:59:11.414Z,1.52
2023-03-23T18:02:18.473Z,1.70
2023-03-23T18:05:24.559Z,1.75
2023-03-23T18:08:30.125Z,2.22
2023-03-23T18:11:35.093Z,2.05
2023-03-23T18:14:40.013Z,1.60
2023-03-23T18:17:48.277Z,1.60
2023-03-23T18:21:02.207Z,1.77
2023-03-23T18:24:07.893Z,2.03
2023-03-23T18:27:12.705Z,1.58
2023-03-23T18:30:17.261Z,1.80
2023-03-23T18:33:22.401Z,1.73
2023-03-23T18:36:28.219Z,1.98
2023-03-23T18:39:33.919Z,2.17
2023-03-23T18:42:41.055Z,2.38
2023-03-23T18:45:53.644Z,4.38
2023-03-23T18:48:58.161Z,4.68
2023-03-23T18:52:03.252Z,5.32
2023-03-23T18:55:09.133Z,5.28
2023-03-23T18:58:15.393Z,4.70
2023-03-23T19:01:20.295Z,3.50
2023-03-23T19:04:25.118Z,4.32
2023-03-23T19:07:30.967Z,4.40
2023-03-23T19:10:37.188Z,3.60
2023-03-23T19:13:53.871Z,4.03
2023-03-23T19:17:07.023Z,3.42
2023-03-23T19:20:16.138Z,3.97
2023-03-23T19:23:28.515Z,2.38
2023-03-23T19:26:42.090Z,2.50
2023-03-23T19:29:46.880Z,3.05
2023-03-23T19:32:51.508Z,2.50
2023-03-23T19:36:07.279Z,2.85
2023-03-23T19:39:16.401Z,2.85
2023-03-23T19:42:21.153Z,3.70
2023-03-23T19:45:25.735Z,3.50
2023-03-23T19:48:31.131Z,2.70
2023-03-23T19:51:35.987Z,2.67
2023-03-23T19:54:41.119Z,1.98
2023-03-23T19:57:45.784Z,2.60
2023-03-23T20:00:50.775Z,2.88
2023-03-23T20:03:59.686Z,2.85
2023-03-23T20:07:07.561Z,2.47
2023-03-23T20:10:12.735Z,2.92
2023-03-23T20:13:18.642Z,2.60
2023-03-23T20:16:24.856Z,3.05
2023-03-23T20:19:29.779Z,10.35
2023-03-23T20:22:35.446Z,3.17
2023-03-23T20:25:40.171Z,2.80
2023-03-23T20:28:45.654Z,2.83
2023-03-23T20:31:52.083Z,3.05
2023-03-23T20:34:57.045Z,3.65
2023-03-23T20:38:01.680Z,2.28
2023-03-23T20:41:08.906Z,2.45
2023-03-23T20:44:15.729Z,2.70
2023-03-23T20:47:20.577Z,2.25
2023-03-23T20:50:25.224Z,2.88
2023-03-23T20:53:31.801Z,2.70
2023-03-23T20:56:39.770Z,2.55
2023-03-23T20:59:44.391Z,2.42
2023-03-23T21:02:49.753Z,2.67
2023-03-23T21:05:54.767Z,2.53
2023-03-23T21:08:59.636Z,2.47
2023-03-23T21:12:06.983Z,2.72
2023-03-23T21:15:12.701Z,2.28
2023-03-23T21:18:17.276Z,2.05
2023-03-23T21:21:22.416Z,2.58
2023-03-23T21:24:29.343Z,2.22
2023-03-23T21:27:35.114Z,2.10
2023-03-23T21:30:45.384Z,2.15
2023-03-23T21:33:50.465Z,2.17
2023-03-23T21:36:54.992Z,2.40
2023-03-23T21:39:59.726Z,2.25
2023-03-23T21:43:04.242Z,2.63
2023-03-23T21:46:09.785Z,2.88
2023-03-23T21:49:14.549Z,2.88
2023-03-23T21:52:20.732Z,2.90
2023-03-23T21:55:25.339Z,2.63
2023-03-23T21:58:30.732Z,3.35
2023-03-23T22:01:37.058Z,3.10
2023-03-23T22:04:42.297Z,2.97
2023-03-23T22:07:47.671Z,2.78
2023-03-23T22:11:00.473Z,3.05
2023-03-23T22:14:06.685Z,3.05
2023-03-23T22:17:11.767Z,3.25
2023-03-23T22:20:17.386Z,2.67
2023-03-23T22:23:22.169Z,2.72
2023-03-23T22:26:28.366Z,2.33
2023-03-23T22:29:32.946Z,2.58
2023-03-23T22:32:37.698Z,2.60
2023-03-23T22:35:42.413Z,2.33
2023-03-23T22:38:48.730Z,3.15
2023-03-23T22:41:53.355Z,3.05
2023-03-23T22:44:57.900Z,3.67
2023-03-23T22:48:04.558Z,3.70
2023-03-23T22:51:10.825Z,4.35
2023-03-23T22:54:15.601Z,3.35
2023-03-23T22:57:20.308Z,3.30
2023-03-23T23:00:24.981Z,3.70
2023-03-23T23:03:30.551Z,3.35
2023-03-23T23:06:35.526Z,3.30
2023-03-23T23:09:41.843Z,2.70
2023-03-23T23:12:47.672Z,3.20
2023-03-23T23:15:54.402Z,3.35
2023-03-23T23:18:58.928Z,3.38
2023-03-23T23:22:18.560Z,3.22
2023-03-23T23:25:24.252Z,2.88
2023-03-23T23:28:28.943Z,3.00
2023-03-23T23:31:34.580Z,2.97
2023-03-23T23:34:39.298Z,3.40
2023-03-23T23:37:43.799Z,3.88
2023-03-23T23:40:48.615Z,3.47
2023-03-23T23:43:53.760Z,4.05
2023-03-23T23:46:58.418Z,2.83
2023-03-23T23:50:03.880Z,2.92
2023-03-23T23:53:09.765Z,2.78
2023-03-23T23:56:14.481Z,3.40
2023-03-23T23:59:19.057Z,4.22
